| Date | Time | Temp. (oF) | Dew Point (oF) | Rel. Hum. (%) | Press. (in.) | Wind Dir. | Wind Speed (mph) | Hourly Rainfall (in.) |
|
|---|---|---|---|---|---|---|---|---|---|
| 1 | 05/20 | 00:00 | 60 | 53 | 79 | 30.17 | NE | 0 | 0.00 |
| 2 | 05/19 | 23:00 | 63 | 53 | 72 | 30.17 | SE | 0 | 0.00 |
| 3 | 05/19 | 22:00 | 66 | 51 | 60 | 30.15 | WSW | 0 | 0.00 |
| 4 | 05/19 | 21:00 | 70 | 49 | 48 | 30.12 | SSE | 0 | 0.00 |
| 5 | 05/19 | 20:00 | 77 | 46 | 35 | 30.11 | SE | 1 | 0.00 |
| 6 | 05/19 | 19:00 | 81 | 47 | 31 | 30.09 | SE | 4 | 0.00 |
| 7 | 05/19 | 18:00 | 81 | 48 | 32 | 30.09 | E | 3 | 0.00 |
| 8 | 05/19 | 17:00 | 81 | 46 | 30 | 30.10 | SE | 4 | 0.00 |
| 9 | 05/19 | 16:00 | 82 | 48 | 31 | 30.11 | SE | 7 | 0.00 |
| 10 | 05/19 | 15:00 | 80 | 46 | 31 | 30.14 | ESE | 8 | 0.00 |
| 11 | 05/19 | 14:00 | 80 | 48 | 33 | 30.14 | NE | 6 | 0.00 |
| 12 | 05/19 | 13:00 | 78 | 50 | 38 | 30.16 | SE | 7 | 0.00 |
| 13 | 05/19 | 12:00 | 74 | 46 | 38 | 30.18 | NNW | 4 | 0.00 |
| 14 | 05/19 | 11:00 | 71 | 47 | 44 | 30.19 | NE | 1 | 0.00 |
| 15 | 05/19 | 10:00 | 67 | 44 | 45 | 30.21 | WSW | 2 | 0.00 |
| 16 | 05/19 | 09:00 | 63 | 50 | 64 | 30.21 | WNW | 1 | 0.00 |
| 17 | 05/19 | 08:00 | 55 | 52 | 92 | 30.21 | SE | 1 | 0.00 |
| 18 | 05/19 | 07:00 | 49 | 48 | 97 | 30.21 | S | 0 | 0.00 |
| 19 | 05/19 | 06:00 | 48 | 46 | 95 | 30.20 | W | 0 | 0.00 |
| 20 | 05/19 | 05:00 | 48 | 46 | 94 | 30.19 | SSW | 0 | 0.00 |
| 21 | 05/19 | 04:00 | 49 | 46 | 90 | 30.19 | SW | 0 | 0.00 |
| 22 | 05/19 | 03:00 | 51 | 47 | 87 | 30.19 | N | 0 | 0.00 |
| 23 | 05/19 | 02:00 | 52 | 46 | 82 | 30.20 | N | 0 | 0.00 |
| 24 | 05/19 | 01:00 | 55 | 47 | 75 | 30.20 | SSW | 0 | 0.00 |